Time,TemperatureF,DewpointF,PressureIn,WindDirection,WindDirectionDegrees,WindSpeedMPH,WindSpeedGustMPH,Humidity,HourlyPrecipIn,Conditions,Clouds,dailyrainin,SoftwareType,DateUTC
2013-07-21 00:01:00,77.0,65.0,29.88,NNE,19,0.0,3.0,66,0.00,,,0.19,,2013-07-21 04:01:00,
2013-07-21 00:11:00,77.0,65.0,29.88,NNE,19,3.0,5.0,66,0.00,,,0.19,,2013-07-21 04:11:00,
2013-07-21 00:22:00,77.0,64.0,29.88,NNE,20,5.0,8.0,65,0.00,,,0.19,,2013-07-21 04:22:00,
2013-07-21 00:32:00,78.0,65.0,29.88,NNE,31,5.0,9.0,64,0.00,,,0.19,,2013-07-21 04:32:00,
2013-07-21 00:43:00,78.0,64.0,29.88,NE,36,6.0,10.0,63,0.00,,,0.19,,2013-07-21 04:43:00,
2013-07-21 00:53:00,78.0,64.0,29.88,NNE,25,3.0,8.0,63,0.00,,,0.19,,2013-07-21 04:53:00,
2013-07-21 01:02:00,77.0,65.0,29.89,NNE,25,0.0,2.0,66,0.00,,,0.19,,2013-07-21 05:02:00,
2013-07-21 01:11:00,76.0,64.0,29.89,NNE,31,0.0,3.0,67,0.00,,,0.19,,2013-07-21 05:11:00,
2013-07-21 01:22:00,76.0,64.0,29.89,NNE,31,0.0,2.0,67,0.00,,,0.19,,2013-07-21 05:22:00,
2013-07-21 01:32:00,76.0,63.0,29.89,NE,51,0.0,3.0,65,0.00,,,0.19,,2013-07-21 05:32:00,
2013-07-21 01:42:00,76.0,64.0,29.89,NE,51,0.0,2.0,66,0.00,,,0.19,,2013-07-21 05:42:00,
2013-07-21 01:52:00,75.0,64.0,29.90,NE,51,0.0,1.0,68,0.00,,,0.19,,2013-07-21 05:52:00,
2013-07-21 02:01:00,75.0,64.0,29.90,NE,51,0.0,1.0,69,0.00,,,0.19,,2013-07-21 06:01:00,
2013-07-21 02:11:00,74.0,63.0,29.91,NE,51,0.0,2.0,69,0.00,,,0.19,,2013-07-21 06:11:00,
2013-07-21 02:22:00,74.0,63.0,29.91,NE,51,0.0,0.0,69,0.00,,,0.19,,2013-07-21 06:22:00,
2013-07-21 02:32:00,74.0,64.0,29.91,NE,51,0.0,0.0,70,0.00,,,0.19,,2013-07-21 06:32:00,
2013-07-21 02:43:00,74.0,64.0,29.90,NE,51,0.0,0.0,72,0.00,,,0.19,,2013-07-21 06:43:00,
2013-07-21 02:52:00,73.0,64.0,29.90,NE,51,0.0,0.0,73,0.00,,,0.19,,2013-07-21 06:52:00,
2013-07-21 03:01:00,73.0,64.0,29.90,NE,51,0.0,1.0,73,0.00,,,0.19,,2013-07-21 07:01:00,
2013-07-21 03:22:00,73.0,65.0,29.90,NE,51,0.0,2.0,75,0.00,,,0.19,,2013-07-21 07:22:00,
2013-07-21 03:43:00,73.0,65.0,29.90,NE,51,0.0,1.0,76,0.00,,,0.19,,2013-07-21 07:43:00,
2013-07-21 03:52:00,73.0,65.0,29.90,NE,51,0.0,1.0,77,0.00,,,0.19,,2013-07-21 07:52:00,
2013-07-21 04:02:00,73.0,65.0,29.90,NE,51,0.0,0.0,77,0.00,,,0.19,,2013-07-21 08:02:00,
2013-07-21 04:11:00,73.0,66.0,29.90,NE,51,0.0,1.0,78,0.00,,,0.19,,2013-07-21 08:11:00,
2013-07-21 04:22:00,73.0,66.0,29.91,NE,51,0.0,0.0,78,0.00,,,0.19,,2013-07-21 08:22:00,
2013-07-21 04:33:00,73.0,65.0,29.91,NE,51,0.0,2.0,77,0.04,,,0.23,,2013-07-21 08:33:00,
2013-07-21 04:43:00,72.0,65.0,29.91,NE,44,0.0,4.0,78,0.11,,,0.30,,2013-07-21 08:43:00,
2013-07-21 04:52:00,72.0,65.0,29.91,NE,44,0.0,1.0,80,0.11,,,0.30,,2013-07-21 08:52:00,
2013-07-21 05:02:00,71.0,65.0,29.90,NE,44,0.0,0.0,81,0.11,,,0.30,,2013-07-21 09:02:00,
2013-07-21 05:12:00,71.0,65.0,29.90,NE,44,0.0,0.0,81,0.11,,,0.30,,2013-07-21 09:12:00,
2013-07-21 05:22:00,71.0,65.0,29.91,NE,44,0.0,0.0,82,0.11,,,0.30,,2013-07-21 09:22:00,
2013-07-21 05:32:00,71.0,65.0,29.91,NE,44,0.0,1.0,82,0.06,,,0.30,,2013-07-21 09:32:00,
2013-07-21 05:42:00,71.0,66.0,29.91,NE,44,0.0,0.0,83,0.00,,,0.30,,2013-07-21 09:42:00,
2013-07-21 05:52:00,70.0,65.0,29.91,NE,44,0.0,2.0,83,0.00,,,0.30,,2013-07-21 09:52:00,
2013-07-21 06:02:00,70.0,65.0,29.91,NE,44,0.0,0.0,83,0.00,,,0.30,,2013-07-21 10:02:00,
2013-07-21 06:22:00,70.0,65.0,29.91,NE,44,0.0,0.0,83,0.00,,,0.30,,2013-07-21 10:22:00,
2013-07-21 06:32:00,70.0,65.0,29.91,NE,45,0.0,2.0,84,0.00,,,0.30,,2013-07-21 10:32:00,
2013-07-21 06:43:00,71.0,66.0,29.91,East,83,0.0,1.0,84,0.00,,,0.30,,2013-07-21 10:43:00,
2013-07-21 06:52:00,71.0,66.0,29.92,East,84,0.0,0.0,84,0.00,,,0.30,,2013-07-21 10:52:00,
2013-07-21 07:02:00,71.0,66.0,29.92,East,83,0.0,1.0,84,0.00,,,0.30,,2013-07-21 11:02:00,
2013-07-21 07:12:00,71.0,66.0,29.92,East,84,0.0,1.0,84,0.00,,,0.30,,2013-07-21 11:12:00,
2013-07-21 07:22:00,71.0,66.0,29.92,East,83,0.0,0.0,84,0.00,,,0.30,,2013-07-21 11:22:00,
2013-07-21 07:33:00,72.0,67.0,29.92,ENE,59,0.0,1.0,84,0.00,,,0.30,,2013-07-21 11:33:00,
2013-07-21 07:43:00,72.0,67.0,29.93,ENE,59,0.0,2.0,85,0.00,,,0.30,,2013-07-21 11:43:00,
2013-07-21 07:52:00,72.0,67.0,29.93,ENE,59,0.0,1.0,84,0.00,,,0.30,,2013-07-21 11:52:00,
2013-07-21 08:01:00,73.0,68.0,29.93,ENE,59,0.0,0.0,84,0.00,,,0.30,,2013-07-21 12:01:00,
2013-07-21 08:22:00,73.0,68.0,29.93,North,9,0.0,0.0,84,0.00,,,0.30,,2013-07-21 12:22:00,
2013-07-21 08:32:00,74.0,69.0,29.93,North,9,0.0,1.0,84,0.00,,,0.30,,2013-07-21 12:32:00,
2013-07-21 08:43:00,74.0,68.0,29.93,North,9,0.0,1.0,83,0.00,,,0.30,,2013-07-21 12:43:00,
2013-07-21 08:53:00,75.0,69.0,29.94,North,9,0.0,0.0,81,0.00,,,0.30,,2013-07-21 12:53:00,
2013-07-21 09:02:00,75.0,68.0,29.93,North,9,0.0,2.0,80,0.00,,,0.30,,2013-07-21 13:02:00,
2013-07-21 09:22:00,76.0,69.0,29.93,NW,322,0.0,1.0,80,0.00,,,0.30,,2013-07-21 13:22:00,
2013-07-21 09:33:00,76.0,68.0,29.93,NW,322,0.0,1.0,77,0.00,,,0.30,,2013-07-21 13:33:00,
2013-07-21 09:43:00,77.0,69.0,29.93,NW,322,0.0,1.0,77,0.00,,,0.30,,2013-07-21 13:43:00,
2013-07-21 09:52:00,77.0,69.0,29.93,NNW,327,0.0,1.0,76,0.00,,,0.30,,2013-07-21 13:52:00,
2013-07-21 10:01:00,79.0,70.0,29.94,ESE,123,0.0,1.0,73,0.00,,,0.30,,2013-07-21 14:01:00,
2013-07-21 10:12:00,80.0,70.0,29.94,ESE,123,0.0,3.0,72,0.00,,,0.30,,2013-07-21 14:12:00,
2013-07-21 10:23:00,80.0,70.0,29.94,ESE,123,1.0,2.0,71,0.00,,,0.30,,2013-07-21 14:23:00,
2013-07-21 10:43:00,82.0,71.0,29.93,SSE,161,2.0,4.0,69,0.00,,,0.30,,2013-07-21 14:43:00,
2013-07-21 10:53:00,81.0,69.0,29.94,South,171,0.0,4.0,68,0.00,,,0.30,,2013-07-21 14:53:00,
2013-07-21 11:02:00,82.0,71.0,29.95,South,189,1.0,3.0,69,0.00,,,0.30,,2013-07-21 15:02:00,
2013-07-21 11:22:00,82.0,69.0,29.95,SSW,199,0.0,3.0,66,0.00,,,0.30,,2013-07-21 15:22:00,
2013-07-21 11:32:00,83.0,71.0,29.95,SSW,199,1.0,2.0,68,0.00,,,0.30,,2013-07-21 15:32:00,
2013-07-21 11:43:00,83.0,69.0,29.94,SSW,199,0.0,4.0,62,0.00,,,0.30,,2013-07-21 15:43:00,
2013-07-21 11:53:00,83.0,70.0,29.94,SSW,199,0.0,1.0,64,0.00,,,0.30,,2013-07-21 15:53:00,
2013-07-21 12:01:00,82.0,69.0,29.94,SSW,199,0.0,2.0,65,0.00,,,0.30,,2013-07-21 16:01:00,
2013-07-21 12:22:00,83.0,72.0,29.95,SSW,199,0.0,2.0,69,0.00,,,0.30,,2013-07-21 16:22:00,
2013-07-21 12:32:00,84.0,71.0,29.95,SSW,199,0.0,3.0,65,0.00,,,0.30,,2013-07-21 16:32:00,
2013-07-21 12:43:00,84.0,71.0,29.95,SSW,199,0.0,3.0,65,0.00,,,0.30,,2013-07-21 16:43:00,
2013-07-21 12:52:00,83.0,70.0,29.95,SSW,199,0.0,4.0,66,0.00,,,0.30,,2013-07-21 16:52:00,
2013-07-21 13:02:00,83.0,70.0,29.95,South,191,2.0,4.0,65,0.00,,,0.30,,2013-07-21 17:02:00,
2013-07-21 13:11:00,83.0,70.0,29.95,WNW,292,1.0,4.0,65,0.00,,,0.12,,2013-07-21 17:11:00,
2013-07-21 13:22:00,83.0,70.0,29.95,WNW,292,0.0,0.0,66,0.00,,,0.12,,2013-07-21 17:22:00,
2013-07-21 13:33:00,83.0,70.0,29.95,WNW,292,0.0,1.0,65,0.00,,,0.12,,2013-07-21 17:33:00,
2013-07-21 13:43:00,83.0,70.0,29.94,WNW,294,1.0,4.0,66,0.00,,,0.12,,2013-07-21 17:43:00,
2013-07-21 13:53:00,83.0,71.0,29.94,WNW,295,0.0,4.0,67,0.00,,,0.12,,2013-07-21 17:53:00,
2013-07-21 14:01:00,83.0,70.0,29.94,NNW,340,4.0,5.0,66,0.00,,,0.12,,2013-07-21 18:01:00,
2013-07-21 14:22:00,82.0,70.0,29.94,NNW,341,4.0,5.0,68,0.00,,,0.12,,2013-07-21 18:22:00,
2013-07-21 14:32:00,83.0,71.0,29.94,NNW,342,1.0,5.0,68,0.00,,,0.12,,2013-07-21 18:32:00,
2013-07-21 14:43:00,83.0,70.0,29.94,NNW,342,2.0,6.0,66,0.00,,,0.12,,2013-07-21 18:43:00,
2013-07-21 14:52:00,83.0,71.0,29.94,North,350,2.0,5.0,67,0.00,,,0.12,,2013-07-21 18:52:00,
2013-07-21 15:01:00,83.0,70.0,29.93,NNW,344,1.0,4.0,64,0.00,,,0.12,,2013-07-21 19:01:00,
2013-07-21 15:22:00,85.0,70.0,29.93,North,355,0.0,2.0,62,0.00,,,0.12,,2013-07-21 19:22:00,
2013-07-21 15:32:00,86.0,69.0,29.93,North,360,0.0,2.0,58,0.00,,,0.12,,2013-07-21 19:32:00,
2013-07-21 15:42:00,86.0,69.0,29.92,North,5,1.0,2.0,58,0.00,,,0.12,,2013-07-21 19:42:00,
2013-07-21 15:52:00,85.0,70.0,29.93,NNE,15,0.0,3.0,61,0.00,,,0.12,,2013-07-21 19:52:00,
2013-07-21 16:02:00,85.0,70.0,29.92,NNE,15,0.0,1.0,62,0.00,,,0.12,,2013-07-21 20:02:00,
2013-07-21 16:12:00,84.0,70.0,29.92,West,259,0.0,2.0,64,0.00,,,0.11,,2013-07-21 20:12:00,
2013-07-21 16:22:00,84.0,70.0,29.92,West,259,0.0,2.0,64,0.00,,,0.11,,2013-07-21 20:22:00,
2013-07-21 16:32:00,83.0,71.0,29.92,WSW,257,0.0,2.0,67,0.00,,,0.11,,2013-07-21 20:32:00,
2013-07-21 16:43:00,83.0,71.0,29.92,WSW,257,0.0,2.0,68,0.00,,,0.11,,2013-07-21 20:43:00,
2013-07-21 16:52:00,83.0,72.0,29.92,WSW,257,0.0,1.0,69,0.00,,,0.11,,2013-07-21 20:52:00,
2013-07-21 17:01:00,82.0,71.0,29.92,WSW,257,0.0,1.0,70,0.00,,,0.11,,2013-07-21 21:01:00,
2013-07-21 17:11:00,82.0,70.0,29.91,WSW,257,0.0,3.0,68,0.00,,,0.11,,2013-07-21 21:11:00,
2013-07-21 17:22:00,82.0,71.0,29.91,WSW,257,3.0,4.0,69,0.00,,,0.11,,2013-07-21 21:22:00,
2013-07-21 17:32:00,81.0,71.0,29.91,WSW,257,2.0,4.0,71,0.00,,,0.11,,2013-07-21 21:32:00,
2013-07-21 17:43:00,81.0,71.0,29.91,WSW,257,1.0,3.0,72,0.00,,,0.11,,2013-07-21 21:43:00,
2013-07-21 17:52:00,81.0,72.0,29.90,WSW,240,0.0,3.0,73,0.00,,,0.11,,2013-07-21 21:52:00,
2013-07-21 18:01:00,82.0,72.0,29.90,SW,225,5.0,11.0,72,0.00,,,0.11,,2013-07-21 22:01:00,
2013-07-21 18:22:00,80.0,71.0,29.90,WSW,257,3.0,10.0,74,0.00,,,0.11,,2013-07-21 22:22:00,
2013-07-21 18:32:00,80.0,71.0,29.88,WSW,253,1.0,5.0,73,0.00,,,0.11,,2013-07-21 22:32:00,
2013-07-21 18:43:00,81.0,70.0,29.88,WSW,258,2.0,4.0,69,0.00,,,0.11,,2013-07-21 22:43:00,
2013-07-21 18:52:00,81.0,70.0,29.88,West,263,0.0,5.0,70,0.00,,,0.11,,2013-07-21 22:52:00,
2013-07-21 19:02:00,81.0,70.0,29.89,WSW,250,1.0,6.0,69,0.00,,,0.11,,2013-07-21 23:02:00,
2013-07-21 19:11:00,80.0,70.0,29.90,SW,232,1.0,6.0,71,0.00,,,0.11,,2013-07-21 23:11:00,
2013-07-21 19:22:00,80.0,70.0,29.90,SW,232,0.0,6.0,71,0.00,,,0.11,,2013-07-21 23:22:00,
2013-07-21 19:32:00,80.0,70.0,29.90,SW,225,2.0,5.0,72,0.00,,,0.11,,2013-07-21 23:32:00,
2013-07-21 19:42:00,80.0,70.0,29.91,SW,225,2.0,5.0,72,0.00,,,0.11,,2013-07-21 23:42:00,
2013-07-21 19:53:00,80.0,70.0,29.91,SW,220,2.0,6.0,71,0.00,,,0.11,,2013-07-21 23:53:00,
2013-07-21 20:01:00,80.0,70.0,29.92,SW,220,2.0,5.0,72,0.00,,,0.11,,2013-07-22 00:01:00,
2013-07-21 20:11:00,80.0,70.0,29.92,SSW,213,3.0,6.0,71,0.00,,,0.11,,2013-07-22 00:11:00,
2013-07-21 20:22:00,80.0,70.0,29.93,SSW,207,3.0,6.0,71,0.00,,,0.11,,2013-07-22 00:22:00,
2013-07-21 20:32:00,79.0,70.0,29.93,SSW,200,2.0,6.0,73,0.00,,,0.11,,2013-07-22 00:32:00,
2013-07-21 20:52:00,78.0,69.0,29.92,SSW,202,0.0,4.0,73,0.00,,,0.11,,2013-07-22 00:52:00,
2013-07-21 21:02:00,77.0,68.0,29.92,SSW,202,0.0,0.0,74,0.00,,,0.11,,2013-07-22 01:02:00,
2013-07-21 21:12:00,76.0,67.0,29.91,SSW,202,0.0,0.0,75,0.00,,,0.11,,2013-07-22 01:12:00,
2013-07-21 21:22:00,76.0,68.0,29.92,SSW,202,0.0,0.0,77,0.00,,,0.11,,2013-07-22 01:22:00,
2013-07-21 21:32:00,75.0,68.0,29.92,SSW,202,0.0,0.0,79,0.00,,,0.11,,2013-07-22 01:32:00,
2013-07-21 21:42:00,75.0,68.0,29.92,SSW,202,0.0,1.0,79,0.00,,,0.11,,2013-07-22 01:42:00,
2013-07-21 21:52:00,76.0,69.0,29.92,SSW,202,1.0,3.0,80,0.00,,,0.11,,2013-07-22 01:52:00,
2013-07-21 22:02:00,75.0,68.0,29.93,SSW,202,0.0,2.0,80,0.00,,,0.11,,2013-07-22 02:02:00,
2013-07-21 22:11:00,75.0,69.0,29.93,SSW,202,0.0,0.0,81,0.00,,,0.11,,2013-07-22 02:11:00,
2013-07-21 22:22:00,75.0,69.0,29.93,SSW,202,0.0,0.0,81,0.00,,,0.11,,2013-07-22 02:22:00,
2013-07-21 22:32:00,74.0,68.0,29.94,SSW,202,0.0,0.0,81,0.00,,,0.11,,2013-07-22 02:32:00,
2013-07-21 22:43:00,74.0,68.0,29.93,SSW,202,0.0,1.0,82,0.00,,,0.11,,2013-07-22 02:43:00,
2013-07-21 22:52:00,74.0,68.0,29.94,SSW,202,0.0,1.0,82,0.00,,,0.11,,2013-07-22 02:52:00,
2013-07-21 23:01:00,74.0,68.0,29.94,SSW,202,0.0,0.0,82,0.00,,,0.11,,2013-07-22 03:01:00,
2013-07-21 23:12:00,74.0,68.0,29.94,SSW,202,0.0,0.0,82,0.00,,,0.11,,2013-07-22 03:12:00,
2013-07-21 23:22:00,74.0,68.0,29.94,SSW,202,0.0,1.0,82,0.00,,,0.11,,2013-07-22 03:22:00,
2013-07-21 23:33:00,74.0,68.0,29.94,SSW,202,0.0,1.0,82,0.00,,,0.11,,2013-07-22 03:33:00,
2013-07-21 23:43:00,74.0,68.0,29.95,SSW,202,0.0,0.0,82,0.00,,,0.11,,2013-07-22 03:43:00,
2013-07-21 23:53:00,74.0,68.0,29.95,SSW,202,0.0,0.0,82,0.00,,,0.11,,2013-07-22 03:53:00,